sensor_id;sensor_type;location;lat;lon;timestamp;pressure;altitude;pressure_sealevel;temperature;humidity
57412;BME280;43247;52.828;-8.980;2023-05-11T00:00:36;101521.29;;;12.58;83.66
57412;BME280;43247;52.828;-8.980;2023-05-11T00:01:36;101522.70;;;12.58;83.58
57412;BME280;43247;52.828;-8.980;2023-05-11T00:02:37;101522.21;;;12.57;83.57
57412;BME280;43247;52.828;-8.980;2023-05-11T00:03:37;101520.84;;;12.56;83.52
57412;BME280;43247;52.828;-8.980;2023-05-11T00:04:37;101519.49;;;12.56;83.60
57412;BME280;43247;52.828;-8.980;2023-05-11T00:05:37;101521.76;;;12.55;83.58
57412;BME280;43247;52.828;-8.980;2023-05-11T00:06:37;101522.81;;;12.54;83.59
57412;BME280;43247;52.828;-8.980;2023-05-11T00:07:37;101523.60;;;12.54;83.62
57412;BME280;43247;52.828;-8.980;2023-05-11T00:08:37;101523.99;;;12.52;83.65
57412;BME280;43247;52.828;-8.980;2023-05-11T00:09:38;101525.45;;;12.52;83.55
57412;BME280;43247;52.828;-8.980;2023-05-11T00:10:38;101525.97;;;12.51;83.51
57412;BME280;43247;52.828;-8.980;2023-05-11T00:11:38;101525.75;;;12.52;83.37
57412;BME280;43247;52.828;-8.980;2023-05-11T00:12:38;101526.27;;;12.51;83.44
57412;BME280;43247;52.828;-8.980;2023-05-11T00:13:38;101528.50;;;12.50;83.32
57412;BME280;43247;52.828;-8.980;2023-05-11T00:14:39;101531.64;;;12.50;83.26
57412;BME280;43247;52.828;-8.980;2023-05-11T00:15:39;101533.12;;;12.49;83.30
57412;BME280;43247;52.828;-8.980;2023-05-11T00:16:39;101534.11;;;12.48;83.35
57412;BME280;43247;52.828;-8.980;2023-05-11T00:17:39;101532.76;;;12.48;83.27
57412;BME280;43247;52.828;-8.980;2023-05-11T00:18:40;101535.13;;;12.47;83.28
57412;BME280;43247;52.828;-8.980;2023-05-11T00:19:40;101535.51;;;12.47;83.24
57412;BME280;43247;52.828;-8.980;2023-05-11T00:20:40;101533.32;;;12.46;83.29
57412;BME280;43247;52.828;-8.980;2023-05-11T00:21:40;101531.16;;;12.46;83.26
57412;BME280;43247;52.828;-8.980;2023-05-11T00:22:40;101532.29;;;12.46;83.16
57412;BME280;43247;52.828;-8.980;2023-05-11T00:23:40;101531.11;;;12.46;83.13
57412;BME280;43247;52.828;-8.980;2023-05-11T00:24:41;101530.94;;;12.45;83.13
57412;BME280;43247;52.828;-8.980;2023-05-11T00:25:41;101532.18;;;12.44;83.10
57412;BME280;43247;52.828;-8.980;2023-05-11T00:26:41;101530.06;;;12.43;83.12
57412;BME280;43247;52.828;-8.980;2023-05-11T00:27:41;101531.13;;;12.43;83.18
57412;BME280;43247;52.828;-8.980;2023-05-11T00:28:41;101535.54;;;12.42;83.16
57412;BME280;43247;52.828;-8.980;2023-05-11T00:29:41;101537.47;;;12.41;83.11
57412;BME280;43247;52.828;-8.980;2023-05-11T00:30:42;101541.29;;;12.41;83.00
57412;BME280;43247;52.828;-8.980;2023-05-11T00:31:42;101542.32;;;12.39;83.14
57412;BME280;43247;52.828;-8.980;2023-05-11T00:32:42;101545.24;;;12.39;83.15
57412;BME280;43247;52.828;-8.980;2023-05-11T00:33:42;101544.79;;;12.39;83.05
57412;BME280;43247;52.828;-8.980;2023-05-11T00:34:42;101544.85;;;12.38;83.08
57412;BME280;43247;52.828;-8.980;2023-05-11T00:35:42;101545.57;;;12.37;83.06
57412;BME280;43247;52.828;-8.980;2023-05-11T00:36:44;101540.09;;;12.37;83.01
57412;BME280;43247;52.828;-8.980;2023-05-11T00:37:43;101538.27;;;12.36;82.95
57412;BME280;43247;52.828;-8.980;2023-05-11T00:38:43;101538.86;;;12.35;82.95
57412;BME280;43247;52.828;-8.980;2023-05-11T00:39:44;101539.63;;;12.35;82.92
57412;BME280;43247;52.828;-8.980;2023-05-11T00:40:44;101538.90;;;12.34;82.97
57412;BME280;43247;52.828;-8.980;2023-05-11T00:41:44;101537.68;;;12.34;82.92
57412;BME280;43247;52.828;-8.980;2023-05-11T00:42:44;101537.28;;;12.33;82.96
57412;BME280;43247;52.828;-8.980;2023-05-11T00:43:44;101535.07;;;12.33;82.85
57412;BME280;43247;52.828;-8.980;2023-05-11T00:44:44;101532.62;;;12.32;82.83
57412;BME280;43247;52.828;-8.980;2023-05-11T00:45:44;101533.53;;;12.31;82.84
57412;BME280;43247;52.828;-8.980;2023-05-11T00:46:45;101536.08;;;12.30;82.86
57412;BME280;43247;52.828;-8.980;2023-05-11T00:47:45;101535.04;;;12.30;82.79
57412;BME280;43247;52.828;-8.980;2023-05-11T00:48:46;101538.65;;;12.31;82.77
57412;BME280;43247;52.828;-8.980;2023-05-11T00:49:48;101540.55;;;12.29;82.84
57412;BME280;43247;52.828;-8.980;2023-05-11T00:50:47;101544.99;;;12.29;82.82
57412;BME280;43247;52.828;-8.980;2023-05-11T00:51:47;101545.99;;;12.29;82.78
57412;BME280;43247;52.828;-8.980;2023-05-11T00:52:47;101547.13;;;12.29;82.76
57412;BME280;43247;52.828;-8.980;2023-05-11T00:53:47;101546.63;;;12.28;82.84
57412;BME280;43247;52.828;-8.980;2023-05-11T00:54:48;101543.93;;;12.28;82.80
57412;BME280;43247;52.828;-8.980;2023-05-11T00:55:48;101547.08;;;12.27;82.91
57412;BME280;43247;52.828;-8.980;2023-05-11T00:56:48;101548.29;;;12.27;82.92
57412;BME280;43247;52.828;-8.980;2023-05-11T00:57:49;101548.76;;;12.27;82.90
57412;BME280;43247;52.828;-8.980;2023-05-11T00:58:49;101550.61;;;12.27;82.81
57412;BME280;43247;52.828;-8.980;2023-05-11T00:59:49;101552.31;;;12.27;82.79
57412;BME280;43247;52.828;-8.980;2023-05-11T01:00:49;101553.20;;;12.26;82.77
57412;BME280;43247;52.828;-8.980;2023-05-11T01:01:49;101557.84;;;12.26;82.76
57412;BME280;43247;52.828;-8.980;2023-05-11T01:02:49;101557.72;;;12.25;82.79
57412;BME280;43247;52.828;-8.980;2023-05-11T01:03:50;101556.00;;;12.25;82.74
57412;BME280;43247;52.828;-8.980;2023-05-11T01:04:50;101555.52;;;12.25;82.77
57412;BME280;43247;52.828;-8.980;2023-05-11T01:06:07;101559.94;;;12.23;82.76
57412;BME280;43247;52.828;-8.980;2023-05-11T01:06:57;101559.19;;;12.23;82.79
57412;BME280;43247;52.828;-8.980;2023-05-11T01:07:57;101557.78;;;12.23;82.57
57412;BME280;43247;52.828;-8.980;2023-05-11T01:08:57;101560.13;;;12.23;82.26
57412;BME280;43247;52.828;-8.980;2023-05-11T01:09:59;101558.73;;;12.22;81.91
57412;BME280;43247;52.828;-8.980;2023-05-11T01:10:59;101560.32;;;12.23;81.98
57412;BME280;43247;52.828;-8.980;2023-05-11T01:11:59;101560.85;;;12.24;81.84
57412;BME280;43247;52.828;-8.980;2023-05-11T01:12:58;101560.69;;;12.25;82.13
57412;BME280;43247;52.828;-8.980;2023-05-11T01:13:57;101558.77;;;12.25;81.92
57412;BME280;43247;52.828;-8.980;2023-05-11T01:14:57;101562.74;;;12.25;81.75
57412;BME280;43247;52.828;-8.980;2023-05-11T01:15:54;101559.69;;;12.25;81.72
57412;BME280;43247;52.828;-8.980;2023-05-11T01:16:55;101558.58;;;12.24;81.64
57412;BME280;43247;52.828;-8.980;2023-05-11T01:17:57;101559.80;;;12.25;81.88
57412;BME280;43247;52.828;-8.980;2023-05-11T01:18:59;101559.50;;;12.25;82.10
57412;BME280;43247;52.828;-8.980;2023-05-11T01:19:57;101558.81;;;12.26;81.99
57412;BME280;43247;52.828;-8.980;2023-05-11T01:20:57;101562.53;;;12.26;81.86
57412;BME280;43247;52.828;-8.980;2023-05-11T01:21:54;101562.11;;;12.25;82.00
57412;BME280;43247;52.828;-8.980;2023-05-11T01:24:02;101565.74;;;12.25;81.57
57412;BME280;43247;52.828;-8.980;2023-05-11T01:25:06;101569.09;;;12.20;81.14
57412;BME280;43247;52.828;-8.980;2023-05-11T01:26:07;101567.14;;;12.14;80.81
57412;BME280;43247;52.828;-8.980;2023-05-11T01:27:09;101568.45;;;12.06;80.86
57412;BME280;43247;52.828;-8.980;2023-05-11T01:29:05;101567.41;;;11.98;80.89
57412;BME280;43247;52.828;-8.980;2023-05-11T01:30:57;101569.31;;;11.91;81.04
57412;BME280;43247;52.828;-8.980;2023-05-11T01:31:56;101569.14;;;11.91;81.00
57412;BME280;43247;52.828;-8.980;2023-05-11T01:32:59;101570.68;;;12.02;80.91
57412;BME280;43247;52.828;-8.980;2023-05-11T01:33:58;101569.73;;;11.97;80.74
57412;BME280;43247;52.828;-8.980;2023-05-11T01:35:01;101571.73;;;12.03;80.70
57412;BME280;43247;52.828;-8.980;2023-05-11T01:36:00;101573.76;;;12.07;80.47
57412;BME280;43247;52.828;-8.980;2023-05-11T01:36:59;101572.41;;;12.11;80.35
57412;BME280;43247;52.828;-8.980;2023-05-11T01:37:57;101571.10;;;12.11;80.61
57412;BME280;43247;52.828;-8.980;2023-05-11T01:39:00;101571.32;;;12.15;80.34
57412;BME280;43247;52.828;-8.980;2023-05-11T01:40:02;101573.62;;;12.16;80.38
57412;BME280;43247;52.828;-8.980;2023-05-11T01:40:59;101575.34;;;12.11;80.40
57412;BME280;43247;52.828;-8.980;2023-05-11T01:41:58;101576.59;;;12.14;80.30
57412;BME280;43247;52.828;-8.980;2023-05-11T01:43:00;101575.54;;;12.14;80.35
57412;BME280;43247;52.828;-8.980;2023-05-11T01:44:01;101576.41;;;12.16;80.17
57412;BME280;43247;52.828;-8.980;2023-05-11T01:44:59;101576.80;;;12.13;80.26
57412;BME280;43247;52.828;-8.980;2023-05-11T01:46:00;101574.92;;;12.12;80.37
57412;BME280;43247;52.828;-8.980;2023-05-11T01:47:00;101572.53;;;12.11;80.38
57412;BME280;43247;52.828;-8.980;2023-05-11T01:48:02;101568.81;;;12.11;80.19
57412;BME280;43247;52.828;-8.980;2023-05-11T01:49:01;101569.68;;;12.11;80.54
57412;BME280;43247;52.828;-8.980;2023-05-11T01:50:00;101572.79;;;12.13;80.52
57412;BME280;43247;52.828;-8.980;2023-05-11T01:51:01;101572.43;;;12.13;80.64
57412;BME280;43247;52.828;-8.980;2023-05-11T01:52:00;101568.85;;;12.15;80.50
57412;BME280;43247;52.828;-8.980;2023-05-11T01:53:02;101570.91;;;12.18;80.39
57412;BME280;43247;52.828;-8.980;2023-05-11T01:54:01;101568.87;;;12.18;80.49
57412;BME280;43247;52.828;-8.980;2023-05-11T01:55:03;101570.10;;;12.16;80.47
57412;BME280;43247;52.828;-8.980;2023-05-11T01:56:01;101568.96;;;12.18;80.43
57412;BME280;43247;52.828;-8.980;2023-05-11T01:57:02;101570.36;;;12.19;80.46
57412;BME280;43247;52.828;-8.980;2023-05-11T01:58:03;101573.86;;;12.19;80.83
57412;BME280;43247;52.828;-8.980;2023-05-11T01:59:01;101574.68;;;12.18;80.64
57412;BME280;43247;52.828;-8.980;2023-05-11T02:00:02;101579.71;;;12.18;80.81
57412;BME280;43247;52.828;-8.980;2023-05-11T02:01:02;101576.57;;;12.18;80.91
57412;BME280;43247;52.828;-8.980;2023-05-11T02:02:03;101577.48;;;12.20;80.98
57412;BME280;43247;52.828;-8.980;2023-05-11T02:03:04;101575.79;;;12.20;80.97
57412;BME280;43247;52.828;-8.980;2023-05-11T02:04:03;101576.72;;;12.20;81.04
57412;BME280;43247;52.828;-8.980;2023-05-11T02:05:04;101578.47;;;12.19;80.61
57412;BME280;43247;52.828;-8.980;2023-05-11T02:06:04;101575.50;;;12.20;80.74
57412;BME280;43247;52.828;-8.980;2023-05-11T02:07:03;101579.06;;;12.21;81.02
57412;BME280;43247;52.828;-8.980;2023-05-11T02:08:04;101574.74;;;12.20;81.03
57412;BME280;43247;52.828;-8.980;2023-05-11T02:09:04;101578.64;;;12.19;80.98
57412;BME280;43247;52.828;-8.980;2023-05-11T02:10:04;101577.39;;;12.19;81.02
57412;BME280;43247;52.828;-8.980;2023-05-11T02:11:05;101578.93;;;12.19;81.09
57412;BME280;43247;52.828;-8.980;2023-05-11T02:12:04;101580.83;;;12.19;81.26
57412;BME280;43247;52.828;-8.980;2023-05-11T02:13:04;101581.62;;;12.19;81.09
57412;BME280;43247;52.828;-8.980;2023-05-11T02:14:05;101582.10;;;12.19;81.42
57412;BME280;43247;52.828;-8.980;2023-05-11T02:15:06;101582.33;;;12.18;81.19
57412;BME280;43247;52.828;-8.980;2023-05-11T02:16:06;101584.23;;;12.19;81.45
57412;BME280;43247;52.828;-8.980;2023-05-11T02:17:06;101582.76;;;12.19;81.49
57412;BME280;43247;52.828;-8.980;2023-05-11T02:18:08;101586.79;;;12.19;81.54
57412;BME280;43247;52.828;-8.980;2023-05-11T02:19:07;101583.41;;;12.18;81.49
57412;BME280;43247;52.828;-8.980;2023-05-11T02:20:08;101581.51;;;12.18;81.67
57412;BME280;43247;52.828;-8.980;2023-05-11T02:21:08;101581.67;;;12.17;81.88
57412;BME280;43247;52.828;-8.980;2023-05-11T02:22:08;101583.12;;;12.17;82.02
57412;BME280;43247;52.828;-8.980;2023-05-11T02:23:08;101582.65;;;12.17;81.97
57412;BME280;43247;52.828;-8.980;2023-05-11T02:24:08;101583.57;;;12.17;82.10
57412;BME280;43247;52.828;-8.980;2023-05-11T02:25:09;101583.19;;;12.17;82.08
57412;BME280;43247;52.828;-8.980;2023-05-11T02:26:08;101581.25;;;12.16;82.11
57412;BME280;43247;52.828;-8.980;2023-05-11T02:27:08;101586.63;;;12.15;82.20
57412;BME280;43247;52.828;-8.980;2023-05-11T02:28:08;101586.39;;;12.15;82.24
57412;BME280;43247;52.828;-8.980;2023-05-11T02:29:08;101587.92;;;12.15;82.36
57412;BME280;43247;52.828;-8.980;2023-05-11T02:30:09;101584.56;;;12.16;82.32
57412;BME280;43247;52.828;-8.980;2023-05-11T02:31:14;101586.05;;;12.15;82.29
57412;BME280;43247;52.828;-8.980;2023-05-11T02:32:13;101587.51;;;12.15;82.39
57412;BME280;43247;52.828;-8.980;2023-05-11T02:33:13;101588.67;;;12.15;82.36
57412;BME280;43247;52.828;-8.980;2023-05-11T02:34:13;101590.30;;;12.15;82.43
57412;BME280;43247;52.828;-8.980;2023-05-11T02:35:15;101588.91;;;12.15;82.42
57412;BME280;43247;52.828;-8.980;2023-05-11T02:36:14;101590.32;;;12.15;82.39
57412;BME280;43247;52.828;-8.980;2023-05-11T02:37:13;101593.51;;;12.15;82.50
57412;BME280;43247;52.828;-8.980;2023-05-11T02:38:10;101595.15;;;12.11;82.63
57412;BME280;43247;52.828;-8.980;2023-05-11T02:39:11;101594.70;;;12.13;82.70
57412;BME280;43247;52.828;-8.980;2023-05-11T02:40:15;101592.47;;;12.13;82.86
57412;BME280;43247;52.828;-8.980;2023-05-11T02:41:13;101593.90;;;12.12;82.93
57412;BME280;43247;52.828;-8.980;2023-05-11T02:42:14;101596.04;;;12.14;83.03
57412;BME280;43247;52.828;-8.980;2023-05-11T02:43:12;101595.31;;;12.14;83.07
57412;BME280;43247;52.828;-8.980;2023-05-11T02:44:14;101594.04;;;12.14;83.06
57412;BME280;43247;52.828;-8.980;2023-05-11T02:45:14;101595.88;;;12.15;83.09
57412;BME280;43247;52.828;-8.980;2023-05-11T02:46:14;101593.28;;;12.15;82.99
57412;BME280;43247;52.828;-8.980;2023-05-11T02:47:13;101590.20;;;12.15;83.01
57412;BME280;43247;52.828;-8.980;2023-05-11T02:48:18;101590.82;;;12.15;83.01
57412;BME280;43247;52.828;-8.980;2023-05-11T02:49:14;101590.04;;;12.15;83.02
57412;BME280;43247;52.828;-8.980;2023-05-11T02:50:13;101594.83;;;12.15;83.09
57412;BME280;43247;52.828;-8.980;2023-05-11T02:51:14;101591.93;;;12.16;83.18
57412;BME280;43247;52.828;-8.980;2023-05-11T02:52:14;101591.81;;;12.15;83.22
57412;BME280;43247;52.828;-8.980;2023-05-11T02:53:15;101591.96;;;12.15;83.21
57412;BME280;43247;52.828;-8.980;2023-05-11T02:54:15;101593.40;;;12.16;83.23
57412;BME280;43247;52.828;-8.980;2023-05-11T02:55:15;101591.27;;;12.14;83.30
57412;BME280;43247;52.828;-8.980;2023-05-11T02:56:14;101590.95;;;12.15;83.05
57412;BME280;43247;52.828;-8.980;2023-05-11T02:57:14;101591.97;;;12.04;82.67
57412;BME280;43247;52.828;-8.980;2023-05-11T02:58:15;101590.04;;;11.97;82.61
57412;BME280;43247;52.828;-8.980;2023-05-11T02:59:15;101590.95;;;11.89;82.63
57412;BME280;43247;52.828;-8.980;2023-05-11T03:00:15;101591.22;;;11.94;82.39
57412;BME280;43247;52.828;-8.980;2023-05-11T03:01:16;101593.80;;;12.01;82.26
57412;BME280;43247;52.828;-8.980;2023-05-11T03:02:15;101593.16;;;12.05;82.11
57412;BME280;43247;52.828;-8.980;2023-05-11T03:03:16;101594.04;;;12.00;82.12
57412;BME280;43247;52.828;-8.980;2023-05-11T03:04:16;101597.15;;;11.94;82.13
57412;BME280;43247;52.828;-8.980;2023-05-11T03:05:16;101597.47;;;12.00;82.03
57412;BME280;43247;52.828;-8.980;2023-05-11T03:06:16;101597.37;;;12.13;81.76
57412;BME280;43247;52.828;-8.980;2023-05-11T03:07:17;101598.03;;;12.16;81.69
57412;BME280;43247;52.828;-8.980;2023-05-11T03:08:17;101597.13;;;12.19;81.50
57412;BME280;43247;52.828;-8.980;2023-05-11T03:09:17;101598.30;;;12.21;81.58
57412;BME280;43247;52.828;-8.980;2023-05-11T03:10:17;101599.40;;;12.17;81.71
57412;BME280;43247;52.828;-8.980;2023-05-11T03:11:18;101598.17;;;12.13;81.65
57412;BME280;43247;52.828;-8.980;2023-05-11T03:12:17;101602.39;;;12.08;81.90
57412;BME280;43247;52.828;-8.980;2023-05-11T03:13:18;101604.80;;;12.05;81.96
57412;BME280;43247;52.828;-8.980;2023-05-11T03:14:18;101605.20;;;12.08;81.99
57412;BME280;43247;52.828;-8.980;2023-05-11T03:15:18;101601.43;;;12.16;81.69
57412;BME280;43247;52.828;-8.980;2023-05-11T03:16:19;101603.14;;;12.12;81.91
57412;BME280;43247;52.828;-8.980;2023-05-11T03:17:20;101604.97;;;12.14;81.82
57412;BME280;43247;52.828;-8.980;2023-05-11T03:18:20;101603.03;;;12.17;81.58
57412;BME280;43247;52.828;-8.980;2023-05-11T03:19:19;101602.03;;;12.21;81.42
57412;BME280;43247;52.828;-8.980;2023-05-11T03:20:21;101606.87;;;12.28;81.42
57412;BME280;43247;52.828;-8.980;2023-05-11T03:21:21;101605.20;;;12.33;81.37
57412;BME280;43247;52.828;-8.980;2023-05-11T03:22:21;101604.35;;;12.28;81.24
57412;BME280;43247;52.828;-8.980;2023-05-11T03:23:21;101604.63;;;12.26;81.53
57412;BME280;43247;52.828;-8.980;2023-05-11T03:24:21;101606.42;;;12.26;81.39
57412;BME280;43247;52.828;-8.980;2023-05-11T03:25:22;101606.46;;;12.28;81.52
57412;BME280;43247;52.828;-8.980;2023-05-11T03:26:22;101608.58;;;12.29;81.75
57412;BME280;43247;52.828;-8.980;2023-05-11T03:27:23;101603.83;;;12.29;81.68
57412;BME280;43247;52.828;-8.980;2023-05-11T03:28:23;101606.65;;;12.35;81.55
57412;BME280;43247;52.828;-8.980;2023-05-11T03:29:24;101604.11;;;12.24;81.75
57412;BME280;43247;52.828;-8.980;2023-05-11T03:30:23;101604.96;;;12.22;81.56
57412;BME280;43247;52.828;-8.980;2023-05-11T03:31:23;101604.23;;;12.34;81.43
57412;BME280;43247;52.828;-8.980;2023-05-11T03:32:23;101605.70;;;12.35;81.57
57412;BME280;43247;52.828;-8.980;2023-05-11T03:33:23;101605.99;;;12.32;81.48
57412;BME280;43247;52.828;-8.980;2023-05-11T03:34:23;101603.97;;;12.38;81.33
57412;BME280;43247;52.828;-8.980;2023-05-11T03:35:26;101603.98;;;12.39;81.33
57412;BME280;43247;52.828;-8.980;2023-05-11T03:36:24;101602.49;;;12.42;81.34
57412;BME280;43247;52.828;-8.980;2023-05-11T03:37:24;101602.14;;;12.40;81.43
57412;BME280;43247;52.828;-8.980;2023-05-11T03:38:25;101605.65;;;12.43;81.61
57412;BME280;43247;52.828;-8.980;2023-05-11T03:39:24;101605.66;;;12.46;81.60
57412;BME280;43247;52.828;-8.980;2023-05-11T03:40:24;101606.46;;;12.46;81.42
57412;BME280;43247;52.828;-8.980;2023-05-11T03:41:25;101609.69;;;12.46;81.53
57412;BME280;43247;52.828;-8.980;2023-05-11T03:42:25;101612.14;;;12.49;81.57
57412;BME280;43247;52.828;-8.980;2023-05-11T03:43:26;101613.33;;;12.47;81.70
57412;BME280;43247;52.828;-8.980;2023-05-11T03:44:25;101614.21;;;12.49;81.64
57412;BME280;43247;52.828;-8.980;2023-05-11T03:45:26;101614.84;;;12.48;81.72
57412;BME280;43247;52.828;-8.980;2023-05-11T03:46:26;101613.22;;;12.46;81.70
57412;BME280;43247;52.828;-8.980;2023-05-11T03:47:26;101614.30;;;12.47;81.61
57412;BME280;43247;52.828;-8.980;2023-05-11T03:48:26;101616.13;;;12.47;81.53
57412;BME280;43247;52.828;-8.980;2023-05-11T03:49:27;101623.40;;;12.47;81.58
57412;BME280;43247;52.828;-8.980;2023-05-11T03:50:27;101623.45;;;12.48;81.67
57412;BME280;43247;52.828;-8.980;2023-05-11T03:51:28;101623.64;;;12.48;81.71
57412;BME280;43247;52.828;-8.980;2023-05-11T03:52:28;101624.21;;;12.50;81.85
57412;BME280;43247;52.828;-8.980;2023-05-11T03:53:27;101621.32;;;12.48;81.78
57412;BME280;43247;52.828;-8.980;2023-05-11T03:54:28;101620.96;;;12.49;82.06
57412;BME280;43247;52.828;-8.980;2023-05-11T03:55:28;101619.37;;;12.50;82.05
57412;BME280;43247;52.828;-8.980;2023-05-11T03:56:28;101618.46;;;12.50;82.17
57412;BME280;43247;52.828;-8.980;2023-05-11T03:57:29;101621.49;;;12.50;82.28
57412;BME280;43247;52.828;-8.980;2023-05-11T03:58:30;101620.77;;;12.49;82.25
57412;BME280;43247;52.828;-8.980;2023-05-11T03:59:29;101625.07;;;12.50;82.37
57412;BME280;43247;52.828;-8.980;2023-05-11T04:00:29;101620.60;;;12.49;82.42
57412;BME280;43247;52.828;-8.980;2023-05-11T04:01:29;101619.24;;;12.49;82.53
57412;BME280;43247;52.828;-8.980;2023-05-11T04:02:29;101621.83;;;12.49;82.53
57412;BME280;43247;52.828;-8.980;2023-05-11T04:03:29;101620.43;;;12.48;82.60
57412;BME280;43247;52.828;-8.980;2023-05-11T04:04:30;101618.16;;;12.49;82.60
57412;BME280;43247;52.828;-8.980;2023-05-11T04:05:30;101619.93;;;12.48;82.60
57412;BME280;43247;52.828;-8.980;2023-05-11T04:06:30;101618.39;;;12.49;82.73
57412;BME280;43247;52.828;-8.980;2023-05-11T04:07:30;101617.94;;;12.48;82.78
57412;BME280;43247;52.828;-8.980;2023-05-11T04:08:30;101619.85;;;12.48;82.72
57412;BME280;43247;52.828;-8.980;2023-05-11T04:09:30;101616.99;;;12.47;82.66
57412;BME280;43247;52.828;-8.980;2023-05-11T04:10:31;101616.89;;;12.47;82.70
57412;BME280;43247;52.828;-8.980;2023-05-11T04:11:35;101619.48;;;12.47;82.81
57412;BME280;43247;52.828;-8.980;2023-05-11T04:12:31;101620.93;;;12.47;82.84
57412;BME280;43247;52.828;-8.980;2023-05-11T04:13:31;101621.29;;;12.47;82.86
57412;BME280;43247;52.828;-8.980;2023-05-11T04:14:31;101622.65;;;12.46;82.81
57412;BME280;43247;52.828;-8.980;2023-05-11T04:15:31;101623.28;;;12.47;82.84
57412;BME280;43247;52.828;-8.980;2023-05-11T04:16:31;101617.02;;;12.47;82.80
57412;BME280;43247;52.828;-8.980;2023-05-11T04:17:32;101622.14;;;12.47;82.80
57412;BME280;43247;52.828;-8.980;2023-05-11T04:18:32;101620.60;;;12.46;82.79
57412;BME280;43247;52.828;-8.980;2023-05-11T04:19:32;101621.68;;;12.46;82.88
57412;BME280;43247;52.828;-8.980;2023-05-11T04:20:32;101620.82;;;12.46;82.91
57412;BME280;43247;52.828;-8.980;2023-05-11T04:21:32;101620.65;;;12.46;82.96
57412;BME280;43247;52.828;-8.980;2023-05-11T04:22:32;101617.10;;;12.46;82.97
57412;BME280;43247;52.828;-8.980;2023-05-11T04:23:33;101615.68;;;12.46;82.99
57412;BME280;43247;52.828;-8.980;2023-05-11T04:24:33;101618.46;;;12.45;82.95
57412;BME280;43247;52.828;-8.980;2023-05-11T04:25:33;101617.52;;;12.45;83.01
57412;BME280;43247;52.828;-8.980;2023-05-11T04:26:33;101623.38;;;12.45;82.96
57412;BME280;43247;52.828;-8.980;2023-05-11T04:27:33;101629.95;;;12.45;82.94
57412;BME280;43247;52.828;-8.980;2023-05-11T04:28:33;101632.51;;;12.45;83.05
57412;BME280;43247;52.828;-8.980;2023-05-11T04:29:34;101628.43;;;12.44;83.05
57412;BME280;43247;52.828;-8.980;2023-05-11T04:30:34;101629.76;;;12.45;83.10
57412;BME280;43247;52.828;-8.980;2023-05-11T04:31:34;101628.97;;;12.45;83.17
57412;BME280;43247;52.828;-8.980;2023-05-11T04:32:34;101630.88;;;12.44;83.07
57412;BME280;43247;52.828;-8.980;2023-05-11T04:33:34;101632.82;;;12.44;83.05
57412;BME280;43247;52.828;-8.980;2023-05-11T04:34:34;101630.57;;;12.45;83.07
57412;BME280;43247;52.828;-8.980;2023-05-11T04:35:38;101632.63;;;12.44;83.08
57412;BME280;43247;52.828;-8.980;2023-05-11T04:36:35;101632.91;;;12.44;83.21
57412;BME280;43247;52.828;-8.980;2023-05-11T04:37:35;101631.95;;;12.44;83.23
57412;BME280;43247;52.828;-8.980;2023-05-11T04:38:35;101633.67;;;12.43;83.16
57412;BME280;43247;52.828;-8.980;2023-05-11T04:39:35;101634.63;;;12.43;83.12
57412;BME280;43247;52.828;-8.980;2023-05-11T04:40:35;101634.15;;;12.43;83.05
57412;BME280;43247;52.828;-8.980;2023-05-11T04:41:36;101635.18;;;12.43;82.99
57412;BME280;43247;52.828;-8.980;2023-05-11T04:42:36;101632.72;;;12.43;82.97
57412;BME280;43247;52.828;-8.980;2023-05-11T04:43:36;101636.07;;;12.43;82.99
57412;BME280;43247;52.828;-8.980;2023-05-11T04:44:37;101632.45;;;12.43;83.01
57412;BME280;43247;52.828;-8.980;2023-05-11T04:45:37;101634.20;;;12.43;82.98
57412;BME280;43247;52.828;-8.980;2023-05-11T04:46:37;101636.14;;;12.42;82.96
57412;BME280;43247;52.828;-8.980;2023-05-11T04:47:38;101632.01;;;12.42;82.99
57412;BME280;43247;52.828;-8.980;2023-05-11T04:48:39;101633.41;;;12.43;82.96
57412;BME280;43247;52.828;-8.980;2023-05-11T04:49:40;101637.11;;;12.43;82.95
57412;BME280;43247;52.828;-8.980;2023-05-11T04:50:40;101638.54;;;12.43;82.94
57412;BME280;43247;52.828;-8.980;2023-05-11T04:51:40;101638.83;;;12.43;82.95
57412;BME280;43247;52.828;-8.980;2023-05-11T04:52:40;101634.11;;;12.43;82.98
57412;BME280;43247;52.828;-8.980;2023-05-11T04:53:40;101633.34;;;12.43;83.03
57412;BME280;43247;52.828;-8.980;2023-05-11T04:54:40;101635.74;;;12.43;82.96
57412;BME280;43247;52.828;-8.980;2023-05-11T04:55:40;101635.35;;;12.43;82.91
57412;BME280;43247;52.828;-8.980;2023-05-11T04:56:41;101637.41;;;12.42;82.96
57412;BME280;43247;52.828;-8.980;2023-05-11T04:57:41;101638.08;;;12.42;83.01
57412;BME280;43247;52.828;-8.980;2023-05-11T04:58:41;101642.15;;;12.42;83.17
57412;BME280;43247;52.828;-8.980;2023-05-11T04:59:41;101640.47;;;12.42;83.29
57412;BME280;43247;52.828;-8.980;2023-05-11T05:00:41;101642.32;;;12.42;83.22
57412;BME280;43247;52.828;-8.980;2023-05-11T05:01:41;101639.04;;;12.42;83.23
57412;BME280;43247;52.828;-8.980;2023-05-11T05:02:42;101640.10;;;12.43;83.23
57412;BME280;43247;52.828;-8.980;2023-05-11T05:03:42;101641.10;;;12.43;83.28
57412;BME280;43247;52.828;-8.980;2023-05-11T05:04:42;101638.23;;;12.43;83.19
57412;BME280;43247;52.828;-8.980;2023-05-11T05:05:43;101638.58;;;12.43;83.17
57412;BME280;43247;52.828;-8.980;2023-05-11T05:06:43;101639.88;;;12.43;83.20
57412;BME280;43247;52.828;-8.980;2023-05-11T05:07:44;101638.00;;;12.44;83.24
57412;BME280;43247;52.828;-8.980;2023-05-11T05:08:44;101639.59;;;12.42;83.21
57412;BME280;43247;52.828;-8.980;2023-05-11T05:09:44;101640.21;;;12.41;83.27
57412;BME280;43247;52.828;-8.980;2023-05-11T05:10:44;101641.60;;;12.42;83.36
57412;BME280;43247;52.828;-8.980;2023-05-11T05:11:44;101639.49;;;12.41;83.30
57412;BME280;43247;52.828;-8.980;2023-05-11T05:12:44;101637.59;;;12.41;83.46
57412;BME280;43247;52.828;-8.980;2023-05-11T05:13:44;101641.47;;;12.40;83.54